Pella, Pella Municipal Airport (KPEA)

NamePella Municipal Airport
CityPella
CountryUnited States
ICAOKPEA
IATA
Altitude270 m
CoordinatesGoogle Map
Live Air TrafficLiveATC.net
METARKPEA 251735Z AUTO 02008G17KT 7SM CLR 17/04 A3001 RMK AO2 T01700040
2020-04-25 17:35:00 Wind: North (20°) 4.12 m/s - Visibility: 11265.38 m - Temperature: 17 °C - Dew point: 4 °C - Humidity: 42.2% - Pressure: 1016.26 hPa
Statistics

The table below shows the detailed information of all flights to/from Pella, Pella Municipal Airport (KPEA).